createdAt,value
2023-03-04T00:04:46.204Z,13.75
2023-03-04T00:09:45.545Z,12.43
2023-03-04T00:14:42.039Z,11.77
2023-03-04T00:19:38.495Z,11.82
2023-03-04T00:24:35.205Z,10.68
2023-03-04T00:29:31.582Z,9.93
2023-03-04T00:34:27.961Z,10.07
2023-03-04T00:39:24.822Z,8.63
2023-03-04T00:44:21.515Z,8.95
2023-03-04T00:49:17.888Z,9.38
2023-03-04T00:54:14.273Z,8.63
2023-03-04T00:59:10.644Z,8.52
2023-03-04T01:04:07.124Z,6.32
2023-03-04T01:09:03.704Z,5.93
2023-03-04T01:14:00.141Z,6.50
2023-03-04T01:18:56.500Z,5.68
2023-03-04T01:23:52.870Z,4.82
2023-03-04T01:28:49.265Z,5.22
2023-03-04T01:33:45.722Z,2.95
2023-03-04T01:38:42.182Z,2.83
2023-03-04T01:43:39.030Z,2.85
2023-03-04T01:48:38.108Z,5.00
2023-03-04T01:53:34.539Z,2.50
2023-03-04T01:58:32.645Z,3.13
2023-03-04T02:03:29.192Z,3.30
2023-03-04T02:08:25.701Z,4.45
2023-03-04T02:13:22.138Z,2.40
2023-03-04T02:18:21.621Z,2.75
2023-03-04T02:23:35.325Z,3.83
2023-03-04T02:28:31.749Z,2.47
2023-03-04T02:33:28.326Z,2.53
2023-03-04T02:38:25.075Z,2.47
2023-03-04T02:43:21.615Z,2.78
2023-03-04T02:48:21.804Z,2.28
2023-03-04T02:53:20.652Z,2.55
2023-03-04T03:03:13.500Z,1.75
2023-03-04T03:08:09.925Z,3.13
2023-03-04T03:13:06.325Z,2.10
2023-03-04T03:18:02.708Z,2.53
2023-03-04T03:22:59.161Z,2.22
2023-03-04T03:27:55.625Z,3.42
2023-03-04T03:32:52.052Z,2.03
2023-03-04T03:37:49.080Z,2.05
2023-03-04T03:42:45.513Z,2.30
2023-03-04T03:47:41.941Z,2.25
2023-03-04T03:52:38.416Z,2.38
2023-03-04T03:57:34.811Z,2.47
2023-03-04T04:02:31.289Z,2.90
2023-03-04T04:07:27.730Z,3.40
2023-03-04T04:12:24.104Z,2.03
2023-03-04T04:17:20.505Z,2.58
2023-03-04T04:22:19.481Z,1.88
2023-03-04T04:27:15.929Z,2.72
2023-03-04T04:32:13.254Z,1.95
2023-03-04T04:37:09.718Z,1.85
2023-03-04T04:42:06.084Z,2.50
2023-03-04T04:47:02.428Z,2.45
2023-03-04T04:51:58.945Z,2.05
2023-03-04T04:56:55.468Z,2.97
2023-03-04T05:01:52.002Z,2.70
2023-03-04T05:06:48.403Z,2.05
2023-03-04T05:11:44.863Z,3.25
2023-03-04T05:16:41.263Z,2.08
2023-03-04T05:21:37.698Z,1.90
2023-03-04T05:26:34.132Z,1.70
2023-03-04T05:31:30.840Z,2.58
2023-03-04T05:36:27.335Z,2.92
2023-03-04T05:41:23.750Z,2.20
2023-03-04T05:46:26.340Z,1.55
2023-03-04T05:51:23.316Z,1.60
2023-03-04T05:56:20.614Z,2.20
2023-03-04T06:01:17.432Z,1.55
2023-03-04T06:06:13.903Z,1.80
2023-03-04T06:11:10.314Z,1.95
2023-03-04T06:16:07.238Z,2.20
2023-03-04T06:21:03.814Z,1.30
2023-03-04T06:26:01.517Z,2.67
2023-03-04T06:30:58.197Z,1.70
2023-03-04T06:35:56.983Z,2.78
2023-03-04T06:45:53.959Z,1.40
2023-03-04T06:50:50.344Z,2.40
2023-03-04T06:55:47.603Z,2.25
2023-03-04T07:00:45.038Z,2.75
2023-03-04T07:05:42.713Z,2.20
2023-03-04T07:10:39.169Z,2.83
2023-03-04T07:15:36.226Z,2.88
2023-03-04T07:20:32.695Z,2.78
2023-03-04T07:25:29.149Z,3.03
2023-03-04T07:30:25.564Z,2.50
2023-03-04T07:35:21.915Z,2.95
2023-03-04T07:40:18.515Z,2.03
2023-03-04T07:45:14.878Z,3.00
2023-03-04T07:50:12.633Z,2.72
2023-03-04T07:55:10.768Z,2.78
2023-03-04T08:00:08.000Z,2.77
2023-03-04T08:05:04.754Z,2.35
2023-03-04T08:10:01.142Z,3.42
2023-03-04T08:14:57.504Z,2.05
2023-03-04T08:19:53.873Z,2.42
2023-03-04T08:24:50.374Z,2.80
2023-03-04T08:29:46.737Z,3.08
2023-03-04T08:34:43.124Z,2.92
2023-03-04T08:39:39.487Z,2.97
2023-03-04T08:44:35.851Z,2.83
2023-03-04T08:49:32.187Z,4.32
2023-03-04T08:54:28.543Z,2.88
2023-03-04T08:59:25.238Z,2.60
2023-03-04T09:04:21.686Z,2.78
2023-03-04T09:09:18.061Z,3.20
2023-03-04T09:14:14.424Z,3.08
2023-03-04T09:19:10.868Z,3.97
2023-03-04T09:24:07.410Z,3.72
2023-03-04T09:29:04.767Z,3.15
2023-03-04T09:34:01.136Z,2.65
2023-03-04T09:39:01.742Z,2.90
2023-03-04T09:43:58.208Z,2.42
2023-03-04T09:48:56.386Z,3.25
2023-03-04T09:54:27.120Z,2.57
2023-03-04T09:59:41.524Z,2.72
2023-03-04T10:04:47.135Z,2.90
2023-03-04T10:09:53.803Z,2.55
2023-03-04T10:14:55.857Z,2.42
2023-03-04T10:20:06.895Z,3.40
2023-03-04T10:25:20.806Z,3.42
2023-03-04T10:30:32.456Z,2.75
2023-03-04T10:35:36.598Z,2.22
2023-03-04T10:40:39.258Z,2.65
2023-03-04T10:45:40.276Z,2.85
2023-03-04T10:50:36.658Z,3.00
2023-03-04T10:55:44.929Z,3.20
2023-03-04T11:00:41.704Z,2.97
2023-03-04T11:05:38.067Z,2.97
2023-03-04T11:10:37.239Z,3.60
2023-03-04T11:15:50.558Z,3.00
2023-03-04T11:20:49.374Z,3.30
2023-03-04T11:30:50.234Z,2.92
2023-03-04T11:36:25.788Z,1.77
2023-03-04T11:41:30.584Z,2.17
2023-03-04T11:46:42.378Z,1.40
2023-03-04T11:51:45.348Z,1.90
2023-03-04T11:56:52.365Z,1.48
2023-03-04T12:02:08.098Z,1.70
2023-03-04T12:07:22.368Z,1.20
2023-03-04T12:12:33.745Z,1.52
2023-03-04T12:18:00.849Z,1.30
2023-03-04T12:23:13.448Z,2.60
2023-03-04T12:28:54.953Z,1.50
2023-03-04T12:34:00.464Z,1.75
2023-03-04T12:38:56.770Z,1.90
2023-03-04T12:43:58.635Z,1.33
2023-03-04T12:49:18.023Z,1.33
2023-03-04T12:54:26.161Z,1.48
2023-03-04T12:59:26.548Z,0.73
2023-03-04T13:04:53.137Z,0.90
2023-03-04T13:10:13.179Z,2.03
2023-03-04T13:15:09.504Z,1.10
2023-03-04T13:20:33.770Z,2.33
2023-03-04T13:25:30.319Z,1.90
2023-03-04T13:30:32.820Z,1.33
2023-03-04T13:35:48.018Z,0.95
2023-03-04T13:40:44.629Z,1.20
2023-03-04T13:45:41.027Z,1.50
2023-03-04T16:21:43.026Z,1.40
2023-03-04T16:26:39.442Z,2.65
2023-03-04T16:31:36.006Z,1.70
2023-03-04T16:36:32.655Z,1.15
2023-03-04T16:41:32.856Z,1.45
2023-03-04T16:46:30.186Z,2.35
2023-03-04T16:51:27.362Z,1.27
2023-03-04T16:56:23.968Z,1.45
2023-03-04T17:01:23.380Z,2.33
2023-03-04T17:06:20.836Z,1.58
2023-03-04T17:11:20.273Z,1.65
2023-03-04T17:16:17.113Z,1.65
2023-03-04T17:21:18.095Z,2.58
2023-03-04T17:26:15.596Z,1.38
2023-03-04T17:31:14.052Z,1.23
2023-03-04T17:36:12.113Z,3.97
2023-03-04T17:41:15.824Z,1.87
2023-03-04T17:46:14.434Z,1.92
2023-03-04T17:51:11.779Z,1.50
2023-03-04T17:56:10.734Z,2.08
2023-03-04T18:01:16.875Z,2.65
2023-03-04T18:06:13.336Z,2.42
2023-03-04T18:11:10.228Z,2.00
2023-03-04T18:16:08.872Z,2.38
2023-03-04T18:21:05.882Z,3.20
2023-03-04T18:26:04.297Z,1.85
2023-03-04T18:31:01.244Z,2.50
2023-03-04T18:36:02.914Z,2.20
2023-03-04T18:41:01.324Z,2.80
2023-03-04T18:46:02.065Z,4.38
2023-03-04T18:50:58.688Z,2.78
2023-03-04T18:56:01.476Z,1.80
2023-03-04T19:00:59.649Z,1.80
2023-03-04T19:05:56.110Z,1.50
2023-03-04T19:10:52.481Z,2.10
2023-03-04T19:15:53.551Z,1.80
2023-03-04T19:20:50.172Z,2.13
2023-03-04T19:25:46.802Z,2.35
2023-03-04T19:30:43.196Z,2.47
2023-03-04T19:35:41.679Z,1.50
2023-03-04T19:40:40.451Z,2.88
2023-03-04T19:45:37.208Z,2.08
2023-03-04T19:50:33.692Z,1.98
2023-03-04T19:55:30.124Z,2.42
2023-03-04T20:00:26.571Z,3.28
2023-03-04T20:05:22.979Z,2.25
2023-03-04T20:10:19.669Z,2.53
2023-03-04T20:15:16.170Z,3.70
2023-03-04T20:20:12.600Z,3.47
2023-03-04T20:25:09.078Z,2.40
2023-03-04T20:30:05.956Z,1.92
2023-03-04T20:35:02.386Z,2.33
2023-03-04T20:39:58.981Z,2.00
2023-03-04T20:44:55.429Z,1.77
2023-03-04T20:49:51.815Z,2.50
2023-03-04T20:54:48.230Z,2.33
2023-03-04T20:59:44.614Z,1.80
2023-03-04T21:04:41.260Z,1.65
2023-03-04T21:09:37.623Z,1.60
2023-03-04T21:14:34.042Z,1.50
2023-03-04T21:19:33.617Z,2.53
2023-03-04T21:24:35.525Z,2.15
2023-03-04T21:29:32.519Z,1.60
2023-03-04T21:34:34.629Z,0.90
2023-03-04T21:39:31.951Z,1.63
2023-03-04T21:44:38.524Z,1.63
2023-03-04T21:49:44.584Z,3.05
2023-03-04T21:54:41.009Z,2.17
2023-03-04T21:59:38.642Z,1.60
2023-03-04T22:04:35.462Z,1.75
2023-03-04T22:09:32.387Z,2.53
2023-03-04T22:14:29.508Z,2.17
2023-03-04T22:19:30.356Z,3.08
2023-03-04T22:24:26.832Z,2.58
2023-03-04T22:29:23.200Z,2.13
2023-03-04T22:34:19.631Z,2.40
2023-03-04T22:39:21.104Z,2.40
2023-03-04T22:44:17.679Z,2.13
2023-03-04T22:49:14.580Z,2.67
2023-03-04T22:54:16.425Z,1.95
2023-03-04T22:59:13.601Z,2.05
2023-03-04T23:04:09.991Z,2.85
2023-03-04T23:09:06.789Z,2.55
2023-03-04T23:14:06.875Z,2.78
2023-03-04T23:19:05.080Z,2.42
2023-03-04T23:24:03.299Z,1.67
2023-03-04T23:29:01.601Z,2.50
2023-03-04T23:33:59.144Z,2.25
2023-03-04T23:38:56.308Z,3.08
2023-03-04T23:43:54.491Z,2.97
2023-03-04T23:48:52.460Z,1.87
2023-03-04T23:53:48.853Z,1.93
2023-03-04T23:58:46.235Z,2.97
